createdAt,value
2019-05-11T00:01:08.241Z,82.03
2019-05-11T00:03:35.204Z,81.68
2019-05-11T00:06:03.372Z,81.49
2019-05-11T00:08:30.363Z,81.52
2019-05-11T00:10:57.145Z,81.86
2019-05-11T00:13:24.363Z,82.34
2019-05-11T00:15:51.230Z,82.09
2019-05-11T00:18:18.326Z,81.86
2019-05-11T00:20:45.642Z,81.43
2019-05-11T00:23:12.325Z,81.31
2019-05-11T00:25:39.357Z,81.56
2019-05-11T00:28:06.124Z,81.30
2019-05-11T00:30:33.124Z,81.13
2019-05-11T00:33:01.570Z,81.03
2019-05-11T00:35:28.442Z,81.36
2019-05-11T00:37:55.071Z,81.47
2019-05-11T00:40:21.959Z,81.10
2019-05-11T00:42:48.577Z,81.32
2019-05-11T00:45:15.590Z,81.38
2019-05-11T00:47:42.677Z,81.75
2019-05-11T00:50:09.741Z,82.12
2019-05-11T00:52:36.351Z,82.36
2019-05-11T00:55:04.457Z,82.56
2019-05-11T00:57:31.325Z,82.97
2019-05-11T00:59:58.467Z,83.23
2019-05-11T01:02:25.201Z,83.14
2019-05-11T01:04:53.133Z,82.93
2019-05-11T01:07:20.055Z,83.13
2019-05-11T01:09:46.922Z,83.66
2019-05-11T01:12:13.826Z,83.91
2019-05-11T01:14:40.653Z,83.46
2019-05-11T01:17:07.885Z,83.69
2019-05-11T01:19:34.802Z,83.44
2019-05-11T01:22:01.893Z,83.59
2019-05-11T01:24:28.670Z,83.45
2019-05-11T01:26:55.752Z,83.02
2019-05-11T01:29:23.097Z,82.73
2019-05-11T01:31:50.290Z,82.45
2019-05-11T01:34:17.300Z,82.49
2019-05-11T01:36:44.104Z,82.52
2019-05-11T01:39:10.951Z,82.45
2019-05-11T01:41:37.951Z,82.57
2019-05-11T01:44:04.775Z,82.14
2019-05-11T01:46:31.228Z,82.21
2019-05-11T01:48:58.049Z,81.50
2019-05-11T01:51:24.892Z,81.31
2019-05-11T01:53:52.146Z,82.02
2019-05-11T01:56:18.851Z,82.23
2019-05-11T01:58:46.360Z,82.34
2019-05-11T02:01:13.914Z,83.07
2019-05-11T02:03:40.694Z,83.44
2019-05-11T02:06:07.926Z,83.42
2019-05-11T02:08:34.665Z,83.58
2019-05-11T02:11:14.954Z,84.21
2019-05-11T02:13:30.194Z,84.57
2019-05-11T02:15:57.149Z,84.54
2019-05-11T02:18:23.906Z,84.53
2019-05-11T02:20:50.533Z,84.28
2019-05-11T02:23:17.634Z,83.82
2019-05-11T02:25:44.694Z,83.57
2019-05-11T02:28:11.549Z,83.59
2019-05-11T02:30:38.503Z,83.63
2019-05-11T02:33:05.430Z,83.67
2019-05-11T02:35:32.586Z,84.03
2019-05-11T02:37:59.630Z,83.91
2019-05-11T02:40:26.659Z,83.87
2019-05-11T02:42:53.506Z,83.88
2019-05-11T02:45:42.176Z,83.50
2019-05-11T02:48:10.156Z,83.17
2019-05-11T02:50:38.144Z,82.89
2019-05-11T02:53:04.916Z,82.47
2019-05-11T02:55:32.631Z,82.38
2019-05-11T02:58:00.099Z,82.72
2019-05-11T03:00:35.023Z,82.68
2019-05-11T03:03:01.777Z,82.41
2019-05-11T03:05:28.598Z,82.16
2019-05-11T03:07:55.550Z,82.25
2019-05-11T03:10:22.636Z,82.36
2019-05-11T03:12:49.597Z,82.25
2019-05-11T03:15:16.590Z,82.76
2019-05-11T03:17:43.670Z,83.20
2019-05-11T03:20:10.519Z,82.81
2019-05-11T03:22:37.550Z,83.12
2019-05-11T03:25:04.403Z,83.40
2019-05-11T03:27:31.765Z,83.39
2019-05-11T03:30:01.114Z,82.77
2019-05-11T03:32:27.573Z,82.40
2019-05-11T03:34:54.333Z,81.92
2019-05-11T03:37:21.486Z,81.76
2019-05-11T03:39:48.606Z,81.24
2019-05-11T03:42:16.729Z,80.91
2019-05-11T03:44:43.586Z,80.55
2019-05-11T03:47:10.432Z,80.56
2019-05-11T03:49:37.217Z,80.79
2019-05-11T03:52:06.411Z,80.72
2019-05-11T03:54:33.301Z,80.39
2019-05-11T03:57:01.194Z,80.69
2019-05-11T03:59:28.268Z,80.57
2019-05-11T04:01:55.039Z,80.82
2019-05-11T04:04:21.882Z,81.03
2019-05-11T04:06:48.779Z,80.53
2019-05-11T04:09:17.312Z,80.56
2019-05-11T04:11:44.150Z,80.42
2019-05-11T04:14:11.221Z,80.23
2019-05-11T04:16:38.329Z,80.31
2019-05-11T04:19:05.064Z,80.25
2019-05-11T04:21:31.722Z,79.87
2019-05-11T04:23:58.760Z,79.72
2019-05-11T04:26:25.409Z,79.65
2019-05-11T04:28:52.412Z,79.65
2019-05-11T04:31:19.342Z,79.91
2019-05-11T04:33:46.275Z,79.43
2019-05-11T04:36:12.971Z,79.79
2019-05-11T04:38:40.220Z,79.43
2019-05-11T04:41:06.773Z,79.13
2019-05-11T04:43:33.802Z,78.74
2019-05-11T04:46:00.853Z,79.56
2019-05-11T04:48:27.958Z,78.89
2019-05-11T04:50:54.767Z,78.61
2019-05-11T04:53:21.527Z,77.90
2019-05-11T04:55:48.433Z,77.84
2019-05-11T04:58:15.386Z,77.80
2019-05-11T05:00:42.217Z,75.61
2019-05-11T05:03:08.859Z,71.21
2019-05-11T05:05:35.572Z,67.87
2019-05-11T05:08:09.571Z,67.84
2019-05-11T05:10:30.823Z,65.86
2019-05-11T05:13:09.766Z,61.48
2019-05-11T05:15:26.098Z,57.42
2019-05-11T05:17:53.195Z,55.96
2019-05-11T05:20:19.788Z,56.23
2019-05-11T05:22:47.436Z,58.69
2019-05-11T05:25:14.766Z,57.38
2019-05-11T05:27:42.024Z,54.98
2019-05-11T05:30:11.188Z,56.39
2019-05-11T05:32:40.330Z,57.49
2019-05-11T05:35:08.217Z,57.37
2019-05-11T05:37:35.636Z,57.36
2019-05-11T05:40:03.962Z,60.31
2019-05-11T05:42:31.481Z,60.58
2019-05-11T05:45:00.417Z,62.58
2019-05-11T05:47:27.643Z,63.17
2019-05-11T05:49:54.965Z,63.47
2019-05-11T05:52:22.780Z,63.91
2019-05-11T05:54:50.137Z,64.48
2019-05-11T05:57:17.807Z,59.90
2019-05-11T05:59:45.432Z,58.20
2019-05-11T06:02:13.043Z,59.63
2019-05-11T06:04:40.482Z,61.40
2019-05-11T06:07:07.802Z,62.32
2019-05-11T06:09:35.060Z,60.66
2019-05-11T06:12:03.091Z,63.19
2019-05-11T06:14:30.331Z,65.18
2019-05-11T06:16:57.692Z,64.23
2019-05-11T06:19:24.925Z,64.04
2019-05-11T06:21:52.345Z,65.01
2019-05-11T06:24:20.136Z,65.01
2019-05-11T06:26:47.769Z,66.03
2019-05-11T06:29:15.931Z,65.89
2019-05-11T06:31:43.502Z,66.25
2019-05-11T06:34:11.677Z,65.67
2019-05-11T06:36:39.638Z,66.42
2019-05-11T06:39:07.447Z,65.95
2019-05-11T06:41:35.324Z,65.87
2019-05-11T06:44:02.725Z,65.17
2019-05-11T06:46:30.526Z,64.60
2019-05-11T06:48:57.913Z,63.68
2019-05-11T06:51:25.444Z,63.20
2019-05-11T06:53:53.003Z,63.30
2019-05-11T06:56:20.714Z,62.63
2019-05-11T06:58:48.053Z,63.03
2019-05-11T07:01:15.791Z,62.80
2019-05-11T07:03:43.333Z,64.30
2019-05-11T07:06:11.033Z,65.38
2019-05-11T07:08:38.529Z,64.96
2019-05-11T07:11:06.010Z,65.55
2019-05-11T07:13:33.346Z,65.32
2019-05-11T07:16:01.015Z,65.28
2019-05-11T07:18:28.493Z,64.48
2019-05-11T07:20:56.209Z,64.69
2019-05-11T07:23:23.788Z,64.60
2019-05-11T07:25:51.255Z,64.04
2019-05-11T07:28:18.424Z,64.14
2019-05-11T07:30:46.740Z,64.35
2019-05-11T07:33:14.482Z,63.92
2019-05-11T07:35:42.049Z,63.88
2019-05-11T07:38:09.262Z,64.12
2019-05-11T07:40:38.446Z,64.24
2019-05-11T07:43:07.362Z,64.79
2019-05-11T07:45:35.005Z,64.06
2019-05-11T07:48:02.765Z,64.85
2019-05-11T07:50:30.086Z,64.13
2019-05-11T07:52:58.845Z,63.79
2019-05-11T07:55:28.192Z,63.39
2019-05-11T07:57:58.405Z,62.76
2019-05-11T08:00:27.862Z,62.20
2019-05-11T08:02:54.544Z,61.69
2019-05-11T08:05:22.246Z,62.04
2019-05-11T08:07:49.608Z,61.40
2019-05-11T08:10:18.584Z,61.45
2019-05-11T08:12:48.058Z,62.49
2019-05-11T08:15:18.149Z,61.21
2019-05-11T08:17:45.081Z,62.36
2019-05-11T08:20:12.969Z,62.36
2019-05-11T08:22:40.744Z,62.16
2019-05-11T08:25:09.271Z,61.80
2019-05-11T08:27:37.867Z,61.80
2019-05-11T08:30:05.673Z,61.67
2019-05-11T08:32:33.523Z,61.67
2019-05-11T08:35:00.797Z,61.23
2019-05-11T08:37:28.505Z,61.23
2019-05-11T08:39:58.475Z,60.46
2019-05-11T08:42:28.693Z,60.10
2019-05-11T08:45:14.753Z,60.10
2019-05-11T08:47:28.334Z,59.72
2019-05-11T08:49:58.862Z,59.52
2019-05-11T08:52:27.904Z,59.02
2019-05-11T08:54:57.620Z,58.96
2019-05-11T08:57:24.610Z,58.86
2019-05-11T08:59:51.983Z,57.87
2019-05-11T09:02:19.566Z,57.70
2019-05-11T09:04:48.409Z,57.25
2019-05-11T09:07:18.410Z,58.06
2019-05-11T09:09:45.569Z,58.35
2019-05-11T09:12:13.220Z,58.70
2019-05-11T09:14:40.539Z,58.59
2019-05-11T09:17:07.946Z,58.47
2019-05-11T09:19:35.498Z,58.92
2019-05-11T09:22:03.345Z,57.75
2019-05-11T09:24:30.829Z,58.17
2019-05-11T09:26:58.823Z,58.29
2019-05-11T09:29:28.157Z,58.56
2019-05-11T09:31:57.607Z,58.39
2019-05-11T09:34:24.869Z,57.63
2019-05-11T09:36:52.507Z,57.38
2019-05-11T09:39:19.980Z,56.44
2019-05-11T09:41:48.819Z,56.81
2019-05-11T09:44:18.198Z,55.88
2019-05-11T09:46:47.918Z,56.41
2019-05-11T09:49:15.323Z,57.83
2019-05-11T09:51:43.044Z,57.58
2019-05-11T09:54:10.484Z,58.66
2019-05-11T09:56:38.308Z,57.53
2019-05-11T09:59:08.573Z,58.33
2019-05-11T10:01:37.671Z,58.47
2019-05-11T10:04:05.042Z,57.64
2019-05-11T10:06:33.837Z,57.10
2019-05-11T10:09:03.677Z,56.29
2019-05-11T10:11:31.069Z,54.75
2019-05-11T10:13:58.807Z,54.23
2019-05-11T10:16:28.065Z,52.99
2019-05-11T10:18:55.534Z,53.28
2019-05-11T10:21:23.093Z,50.35
2019-05-11T10:23:50.146Z,49.43
2019-05-11T10:26:18.783Z,50.33
2019-05-11T10:28:48.199Z,50.43
2019-05-11T10:31:17.808Z,49.80
2019-05-11T10:33:45.079Z,52.44
2019-05-11T10:36:11.901Z,48.69
2019-05-11T10:38:38.725Z,42.81
2019-05-11T10:41:08.519Z,47.50
2019-05-11T10:43:34.496Z,49.47
2019-05-11T10:46:16.102Z,49.38
2019-05-11T10:48:32.236Z,49.06
2019-05-11T10:51:01.301Z,50.26
2019-05-11T10:53:28.913Z,47.59
2019-05-11T10:55:58.103Z,45.24
2019-05-11T10:58:25.760Z,47.22
2019-05-11T11:00:53.506Z,48.59
2019-05-11T11:03:22.446Z,48.93
2019-05-11T11:05:50.095Z,47.93
2019-05-11T11:08:18.559Z,44.52
2019-05-11T11:10:48.353Z,40.60
2019-05-11T11:13:18.813Z,43.80
2019-05-11T11:15:48.441Z,45.53
2019-05-11T11:18:18.810Z,44.11
2019-05-11T11:20:48.946Z,41.81
2019-05-11T11:23:17.762Z,41.59
2019-05-11T11:25:47.973Z,41.09
2019-05-11T11:28:17.515Z,38.33
2019-05-11T11:30:47.914Z,38.48
2019-05-11T11:33:15.033Z,38.07
2019-05-11T11:35:42.446Z,38.96
2019-05-11T11:38:11.583Z,39.36
2019-05-11T11:40:42.405Z,40.98
2019-05-11T11:43:08.812Z,38.75
2019-05-11T11:45:38.131Z,38.50
2019-05-11T11:48:08.467Z,35.75
2019-05-11T11:50:37.550Z,35.44
2019-05-11T11:53:04.768Z,34.50
2019-05-11T11:55:32.264Z,36.11
2019-05-11T11:58:00.427Z,33.52
2019-05-11T12:00:29.017Z,33.06
2019-05-11T12:02:58.169Z,34.50
2019-05-11T12:05:28.280Z,37.02
2019-05-11T12:07:57.928Z,36.15
2019-05-11T12:10:25.451Z,35.30
2019-05-11T12:12:54.440Z,34.86
2019-05-11T12:15:22.128Z,34.23
2019-05-11T12:17:49.514Z,35.12
2019-05-11T12:20:18.051Z,31.58
2019-05-11T12:22:47.677Z,34.71
2019-05-11T12:25:15.416Z,33.73
2019-05-11T12:27:43.193Z,36.50
2019-05-11T12:30:10.938Z,31.10
2019-05-11T12:32:40.213Z,31.97
2019-05-11T12:35:08.686Z,30.69
2019-05-11T12:37:37.731Z,29.71
2019-05-11T12:40:08.229Z,27.60
2019-05-11T12:42:37.766Z,28.42
2019-05-11T12:45:07.547Z,28.50
2019-05-11T12:47:35.326Z,28.46
2019-05-11T12:50:03.067Z,28.19
2019-05-11T12:52:31.817Z,30.13
2019-05-11T12:54:59.215Z,30.66
2019-05-11T12:57:28.151Z,32.22
2019-05-11T12:59:58.356Z,32.95
2019-05-11T13:02:27.938Z,31.63
2019-05-11T13:04:55.314Z,30.57
2019-05-11T13:07:23.009Z,30.55
2019-05-11T13:09:50.714Z,30.87
2019-05-11T13:12:18.735Z,29.00
2019-05-11T13:14:46.005Z,30.19
2019-05-11T13:17:13.556Z,28.87
2019-05-11T13:19:41.121Z,28.57
2019-05-11T13:22:08.884Z,29.64
2019-05-11T13:24:38.445Z,31.36
2019-05-11T13:27:05.865Z,32.66
2019-05-11T13:29:33.036Z,32.28
2019-05-11T13:32:00.109Z,32.60
2019-05-11T13:34:31.150Z,34.69
2019-05-11T13:36:57.492Z,35.41
2019-05-11T13:39:24.375Z,36.12
2019-05-11T13:41:52.022Z,35.72
2019-05-11T13:47:12.918Z,34.59
2019-05-11T13:49:41.353Z,35.09
2019-05-11T13:52:08.968Z,35.72
2019-05-11T13:54:37.602Z,34.94
2019-05-11T13:57:04.948Z,34.68
2019-05-11T13:59:33.450Z,34.73
2019-05-11T14:02:00.997Z,35.59
2019-05-11T14:04:28.650Z,35.75
2019-05-11T14:06:55.931Z,36.29
2019-05-11T14:09:23.312Z,35.74
2019-05-11T14:11:50.924Z,36.16
2019-05-11T14:14:18.711Z,37.17
2019-05-11T14:16:48.301Z,36.42
2019-05-11T14:19:17.600Z,36.29
2019-05-11T14:21:44.716Z,36.51
2019-05-11T14:24:12.294Z,34.85
2019-05-11T14:26:39.991Z,36.05
2019-05-11T14:29:08.696Z,35.39
2019-05-11T14:31:35.700Z,35.61
2019-05-11T14:34:02.695Z,36.12
2019-05-11T14:36:29.539Z,35.86
2019-05-11T14:38:57.781Z,36.71
2019-05-11T14:41:24.890Z,35.03
2019-05-11T14:43:51.478Z,35.56
2019-05-11T14:46:20.934Z,35.50
2019-05-11T14:48:48.192Z,35.17
2019-05-11T14:51:15.065Z,35.94
2019-05-11T14:53:41.796Z,35.53
2019-05-11T14:56:08.634Z,35.29
2019-05-11T14:58:38.511Z,34.87
2019-05-11T15:01:05.555Z,34.93
2019-05-11T15:03:32.607Z,35.23
2019-05-11T15:05:59.543Z,34.40
2019-05-11T15:08:28.465Z,34.71
2019-05-11T15:10:55.075Z,34.33
2019-05-11T15:13:21.584Z,35.11
2019-05-11T15:15:48.782Z,33.76
2019-05-11T15:18:17.731Z,34.09
2019-05-11T15:20:44.941Z,35.30
2019-05-11T15:23:11.653Z,36.75
2019-05-11T15:25:38.554Z,35.27
2019-05-11T15:28:05.850Z,35.16
2019-05-11T15:30:32.997Z,35.41
2019-05-11T15:33:00.052Z,35.11
2019-05-11T15:35:28.423Z,35.11
2019-05-11T15:37:58.046Z,35.79
2019-05-11T15:40:24.173Z,35.10
2019-05-11T15:42:50.886Z,35.41
2019-05-11T15:45:18.940Z,34.76
2019-05-11T15:47:48.427Z,35.11
2019-05-11T15:50:15.529Z,35.10
2019-05-11T15:52:42.395Z,35.00
2019-05-11T15:55:09.517Z,36.97
2019-05-11T15:57:38.196Z,35.98
2019-05-11T16:00:08.998Z,35.59
2019-05-11T16:02:37.832Z,35.61
2019-05-11T16:05:08.461Z,36.17
2019-05-11T16:07:34.811Z,34.56
2019-05-11T16:10:02.056Z,36.02
2019-05-11T16:12:28.870Z,34.49
2019-05-11T16:14:57.595Z,34.57
2019-05-11T16:17:24.221Z,34.21
2019-05-11T16:19:50.803Z,34.56
2019-05-11T16:22:20.847Z,34.19
2019-05-11T16:24:48.510Z,35.76
2019-05-11T16:27:15.448Z,34.85
2019-05-11T16:29:42.974Z,34.42
2019-05-11T16:32:10.159Z,35.08
2019-05-11T16:34:38.160Z,34.89
2019-05-11T16:37:07.765Z,35.11
2019-05-11T16:39:34.132Z,35.29
2019-05-11T16:42:01.287Z,35.42
2019-05-11T16:44:28.875Z,35.62
2019-05-11T16:46:55.563Z,35.62
2019-05-11T16:49:28.456Z,36.01
2019-05-11T16:51:51.403Z,36.48
2019-05-11T16:54:18.218Z,37.67
2019-05-11T16:56:45.083Z,36.86
2019-05-11T16:59:12.232Z,38.30
2019-05-11T17:01:39.463Z,38.48
2019-05-11T17:04:07.879Z,38.12
2019-05-11T17:06:35.019Z,38.36
2019-05-11T17:09:01.696Z,38.69
2019-05-11T17:11:29.858Z,38.38
2019-05-11T17:13:57.605Z,38.57
2019-05-11T17:16:24.339Z,38.76
2019-05-11T17:18:51.383Z,38.43
2019-05-11T17:21:18.438Z,38.09
2019-05-11T17:23:48.986Z,38.22
2019-05-11T17:26:15.905Z,38.58
2019-05-11T17:28:42.855Z,38.73
2019-05-11T17:31:09.954Z,38.95
2019-05-11T17:33:38.445Z,39.10
2019-05-11T17:36:08.124Z,39.53
2019-05-11T17:38:34.180Z,40.43
2019-05-11T17:41:01.263Z,40.30
2019-05-11T17:43:28.252Z,40.21
2019-05-11T17:45:55.367Z,40.71
2019-05-11T17:48:22.410Z,40.77
2019-05-11T17:50:49.089Z,40.87
2019-05-11T17:53:17.746Z,40.86
2019-05-11T17:55:44.912Z,41.30
2019-05-11T17:58:12.447Z,41.54
2019-05-11T18:00:39.666Z,42.03
2019-05-11T18:03:11.146Z,41.95
2019-05-11T18:05:37.939Z,42.35
2019-05-11T18:08:05.151Z,42.07
2019-05-11T18:10:31.801Z,42.20
2019-05-11T18:12:59.755Z,42.39
2019-05-11T18:15:27.353Z,43.09
2019-05-11T18:17:54.301Z,42.90
2019-05-11T18:20:22.139Z,43.47
2019-05-11T18:22:49.440Z,43.51
2019-05-11T18:25:18.209Z,44.05
2019-05-11T18:27:47.698Z,44.07
2019-05-11T18:30:14.107Z,44.13
2019-05-11T18:32:40.839Z,44.37
2019-05-11T18:35:08.460Z,44.66
2019-05-11T18:37:38.677Z,44.44
2019-05-11T18:40:05.743Z,44.44
